Time;durP1;ratioP1;P1;durP2;ratioP2;P2;SDS_P1;SDS_P2;PMS_P1;PMS_P2;Temp;Humidity;BMP_temperature;BMP_pressure;BME280_temperature;BME280_humidity;BME280_pressure;Samples;Min_cycle;Max_cycle;Signal;HPM_P1;HPM_P2
2021/12/02 00:00:12;;;;;;;2.92;1.00;;;;;;;-3.64;53.83;97683.69;4977083;28;20046;-82
2021/12/02 00:02:40;;;;;;;1.58;0.90;;;;;;;-3.36;54.45;97694.38;4976081;28;20046;-82
2021/12/02 00:05:06;;;;;;;1.70;1.13;;;;;;;-3.04;53.89;97700.03;4959835;28;20461;-83
2021/12/02 00:07:32;;;;;;;1.27;1.00;;;;;;;-3.13;52.50;97695.66;4976402;28;20038;-82
2021/12/02 00:09:58;;;;;;;3.40;1.60;;;;;;;-3.09;52.90;97691.50;4972047;28;20451;-83
2021/12/02 00:12:24;;;;;;;1.17;0.80;;;;;;;-3.26;53.45;97688.66;4965587;28;20413;-82
2021/12/02 00:14:51;;;;;;;2.95;1.42;;;;;;;-3.25;53.19;97686.97;4959346;28;20457;-83
2021/12/02 00:17:22;;;;;;;4.75;1.60;;;;;;;-3.11;53.08;97706.69;4975558;28;20047;-83
2021/12/02 00:22:32;;;;;;;2.17;1.40;;;;;;;-3.39;53.04;97699.38;4962267;28;20506;-83
2021/12/02 00:25:01;;;;;;;1.73;1.20;;;;;;;-3.73;54.59;97716.44;4958926;28;20156;-83
2021/12/02 00:27:29;;;;;;;1.88;1.35;;;;;;;-3.31;53.97;97723.19;4956319;28;20122;-82
2021/12/02 00:29:57;;;;;;;2.45;1.10;;;;;;;-3.63;54.38;97700.59;4973113;28;20413;-82
2021/12/02 00:32:28;;;;;;;2.30;1.23;;;;;;;-3.53;54.79;97694.03;4975925;28;20089;-82
2021/12/02 00:34:54;;;;;;;2.13;1.27;;;;;;;-3.36;54.32;97699.44;4953969;28;20043;-82
2021/12/02 00:37:19;;;;;;;2.50;1.27;;;;;;;-3.23;54.38;97698.84;4975275;28;20081;-82
2021/12/02 00:39:45;;;;;;;2.78;1.58;;;;;;;-3.68;54.03;97709.78;4958955;28;20520;-82
2021/12/02 00:42:11;;;;;;;2.03;1.25;;;;;;;-3.86;54.96;97700.13;4953276;29;20035;-82
2021/12/02 00:44:37;;;;;;;5.13;1.55;;;;;;;-4.13;55.26;97699.53;4955710;28;20039;-83
2021/12/02 00:47:03;;;;;;;2.67;1.45;;;;;;;-4.04;56.67;97714.09;4941390;28;20042;-82
2021/12/02 00:49:29;;;;;;;3.50;1.70;;;;;;;-4.46;55.74;97709.75;4945985;29;20050;-82
2021/12/02 00:51:56;;;;;;;4.15;1.80;;;;;;;-4.41;56.30;97716.63;4941401;29;20038;-82
2021/12/02 00:54:24;;;;;;;3.13;1.95;;;;;;;-4.67;55.36;97718.56;4939086;28;20054;-83
2021/12/02 00:56:49;;;;;;;2.88;1.65;;;;;;;-4.86;55.64;97727.38;4966294;28;20224;-83
2021/12/02 00:59:15;;;;;;;2.75;1.50;;;;;;;-4.72;55.91;97735.31;4938999;28;20042;-82
2021/12/02 01:01:41;;;;;;;4.55;1.55;;;;;;;-4.66;55.67;97725.31;4961817;28;20054;-82
2021/12/02 01:04:11;;;;;;;1.65;1.30;;;;;;;-4.31;55.50;97732.03;4958657;28;20042;-82
2021/12/02 01:06:38;;;;;;;4.20;1.80;;;;;;;-4.73;56.17;97746.22;4959235;28;20105;-81
2021/12/02 01:09:05;;;;;;;3.10;1.30;;;;;;;-4.36;56.37;97737.84;4938978;28;20073;-81
2021/12/02 01:11:31;;;;;;;3.00;1.67;;;;;;;-4.39;55.74;97732.72;4973714;28;20047;-82
2021/12/02 01:13:57;;;;;;;2.50;1.40;;;;;;;-4.22;56.26;97743.22;4959045;28;20043;-81
2021/12/02 01:16:22;;;;;;;2.67;1.77;;;;;;;-3.71;55.50;97750.28;4958367;28;20051;-82
2021/12/02 01:18:48;;;;;;;3.25;1.50;;;;;;;-3.78;53.99;97740.00;4954838;29;20066;-82
2021/12/02 01:21:16;;;;;;;2.30;1.33;;;;;;;-3.81;55.35;97748.38;4971486;28;20042;-83
2021/12/02 01:23:43;;;;;;;2.00;1.30;;;;;;;-3.81;55.60;97750.03;4974363;28;20407;-82
2021/12/02 01:26:08;;;;;;;2.50;1.40;;;;;;;-3.92;54.50;97775.16;4941751;28;20037;-82
2021/12/02 01:28:37;;;;;;;3.75;1.50;;;;;;;-4.28;56.04;97765.88;4975432;28;20078;-82
2021/12/02 01:31:03;;;;;;;3.58;1.60;;;;;;;-4.60;56.80;97760.03;4973445;28;20034;-83
2021/12/02 01:33:29;;;;;;;2.45;1.58;;;;;;;-4.47;56.81;97759.53;4973179;28;20053;-82
2021/12/02 01:35:56;;;;;;;3.10;1.55;;;;;;;-4.38;56.49;97772.41;4957389;28;20509;-82
2021/12/02 01:38:26;;;;;;;3.05;1.45;;;;;;;-4.14;56.65;97773.78;4973478;28;20048;-82
2021/12/02 01:40:52;;;;;;;2.97;1.48;;;;;;;-3.97;56.04;97759.00;4957514;28;20053;-83
2021/12/02 01:43:18;;;;;;;2.17;1.10;;;;;;;-3.99;56.53;97758.09;4957107;28;20046;-83
2021/12/02 01:45:44;;;;;;;2.22;1.30;;;;;;;-4.12;56.67;97762.91;4941156;28;20038;-84
2021/12/02 01:48:12;;;;;;;2.80;1.40;;;;;;;-3.95;56.41;97764.94;4957094;28;20130;-83
2021/12/02 01:50:39;;;;;;;2.97;1.33;;;;;;;-3.97;56.17;97759.00;4956444;28;20049;-83
2021/12/02 01:53:05;;;;;;;2.25;1.50;;;;;;;-4.09;56.32;97783.22;4963810;28;20043;-83
2021/12/02 01:55:31;;;;;;;3.53;1.48;;;;;;;-4.24;57.05;97777.78;4937116;28;20066;-82
2021/12/02 01:58:04;;;;;;;2.35;1.25;;;;;;;-4.09;57.06;97780.69;4957378;28;20509;-82
2021/12/02 02:00:41;;;;;;;1.98;1.13;;;;;;;-3.79;55.96;97799.94;4957353;28;20049;-83
2021/12/02 02:03:07;;;;;;;2.75;1.38;;;;;;;-4.12;56.25;97778.09;4973868;28;20363;-83
2021/12/02 02:05:33;;;;;;;2.45;1.30;;;;;;;-4.19;56.92;97773.69;4973516;28;20035;-82
2021/12/02 02:08:06;;;;;;;2.28;1.33;;;;;;;-4.03;56.06;97756.31;4957319;28;20050;-82
2021/12/02 02:10:34;;;;;;;2.15;1.25;;;;;;;-3.97;56.88;97774.19;4957788;28;20577;-83
2021/12/02 02:13:04;;;;;;;1.98;1.20;;;;;;;-4.06;56.20;97763.84;4973274;28;20051;-81
2021/12/02 02:15:30;;;;;;;2.28;1.15;;;;;;;-3.99;56.06;97764.00;4957242;28;20045;-83
2021/12/02 02:18:05;;;;;;;2.35;1.30;;;;;;;-4.32;55.94;97774.22;4938187;29;20090;-87
2021/12/02 02:20:37;;;;;;;3.65;1.50;;;;;;;-4.35;57.49;97784.28;4967839;28;20047;-83
2021/12/02 02:23:05;;;;;;;2.53;1.30;;;;;;;-4.30;57.29;97781.88;4976085;28;20043;-84
2021/12/02 02:25:31;;;;;;;2.97;1.35;;;;;;;-4.40;57.31;97780.75;4958787;28;20034;-83
2021/12/02 02:27:56;;;;;;;;;;;;;;;-4.36;57.99;97787.63;4975009;28;20042;-82
2021/12/02 02:30:22;;;;;;;2.97;1.48;;;;;;;-4.30;57.88;97779.34;4953757;29;19914;-82
2021/12/02 02:32:48;;;;;;;2.65;1.40;;;;;;;-4.43;57.54;97790.84;4965899;28;20544;-81
2021/12/02 02:35:14;;;;;;;2.67;1.25;;;;;;;-4.38;57.57;97796.84;4956421;28;20549;-81
2021/12/02 02:37:39;;;;;;;;;;;;;;;-4.36;57.17;97805.34;4943086;28;20043;-81
2021/12/02 02:40:07;;;;;;;3.03;1.10;;;;;;;-4.41;58.05;97787.50;4958731;28;19925;-82
2021/12/02 02:42:34;;;;;;;1.83;1.20;;;;;;;-4.35;57.82;97796.94;4959119;28;20087;-82
2021/12/02 02:45:00;;;;;;;2.47;1.30;;;;;;;-4.49;57.90;97771.28;4976335;28;20133;-83
2021/12/02 02:47:27;;;;;;;3.10;1.60;;;;;;;-4.56;58.42;97783.75;4974025;28;20467;-85
2021/12/02 02:49:53;;;;;;;3.05;1.70;;;;;;;-4.53;58.80;97783.84;4959156;28;20031;-83
2021/12/02 02:52:19;;;;;;;3.13;1.65;;;;;;;-4.48;58.54;97779.75;4942259;28;20047;-83
2021/12/02 02:54:46;;;;;;;2.85;1.55;;;;;;;-4.47;58.74;97781.44;4974681;28;20041;-82
2021/12/02 02:57:14;;;;;;;4.60;1.60;;;;;;;-4.53;58.78;97784.69;4957644;28;20050;-82
2021/12/02 03:02:15;;;;;;;3.60;1.50;;;;;;;-4.35;58.49;97780.06;4931785;29;20027;-81
2021/12/02 03:07:21;;;;;;;4.68;1.65;;;;;;;-4.36;58.32;97788.47;4961620;28;20070;-82
2021/12/02 03:12:28;;;;;;;2.70;1.33;;;;;;;-4.44;58.86;97766.34;4960696;28;20066;-82
2021/12/02 03:17:27;;;;;;;2.50;1.40;;;;;;;-4.42;58.96;97783.25;4977198;28;20062;-83
2021/12/02 03:19:53;;;;;;;3.50;1.27;;;;;;;-4.41;58.50;97782.44;4960076;28;20126;-83
2021/12/02 03:22:18;;;;;;;2.40;1.20;;;;;;;-4.44;59.02;97779.00;4945349;28;20050;-84
2021/12/02 03:24:44;;;;;;;3.58;1.45;;;;;;;-4.46;59.24;97781.47;4977301;28;20521;-85
2021/12/02 03:27:10;;;;;;;2.88;1.38;;;;;;;-4.40;59.49;97783.28;4976000;28;20560;-85
2021/12/02 03:29:36;;;;;;;3.13;1.50;;;;;;;-4.47;59.20;97783.97;4976105;28;20043;-82
2021/12/02 03:32:02;;;;;;;3.17;1.40;;;;;;;-4.40;58.38;97785.81;4971065;28;20089;-83
2021/12/02 03:34:27;;;;;;;;;;;;;;;-4.27;59.77;97797.09;4979128;28;20042;-81
2021/12/02 03:36:53;;;;;;;2.35;1.35;;;;;;;-4.25;59.84;97803.94;4977324;28;20299;-83
2021/12/02 03:39:19;;;;;;;1.60;1.13;;;;;;;-4.34;58.99;97803.72;4929450;28;20201;-82
2021/12/02 03:41:45;;;;;;;2.47;1.58;;;;;;;-4.35;59.20;97789.34;4976456;28;20125;-82
2021/12/02 03:44:11;;;;;;;2.70;1.40;;;;;;;-4.35;59.37;97800.31;4977402;28;20486;-81
2021/12/02 03:46:38;;;;;;;;;;;;;;;-4.29;59.48;97807.22;4949120;29;20062;-83
2021/12/02 03:49:04;;;;;;;;;;;;;;;-4.28;59.77;97808.91;4976420;28;19945;-78
2021/12/02 03:51:30;;;;;;;2.63;1.52;;;;;;;-4.28;60.01;97811.44;4979046;28;19941;-83
2021/12/02 03:53:56;;;;;;;2.95;1.33;;;;;;;-4.28;59.68;97803.84;4956443;28;20039;-85
2021/12/02 03:56:25;;;;;;;3.63;1.42;;;;;;;-4.37;59.44;97801.09;4929670;28;20462;-86
2021/12/02 03:58:51;;;;;;;2.60;1.20;;;;;;;-4.29;60.04;97803.81;4945645;28;20049;-83
2021/12/02 04:01:17;;;;;;;;;;;;;;;-4.21;59.87;97818.38;4945287;28;20038;-83
2021/12/02 04:03:43;;;;;;;2.08;1.20;;;;;;;-4.17;60.18;97806.63;4979247;28;19985;-83
2021/12/02 04:06:09;;;;;;;2.75;1.30;;;;;;;-4.16;60.25;97814.28;4962923;28;20031;-83
2021/12/02 04:11:21;;;;;;;2.35;1.38;;;;;;;-4.14;59.97;97814.31;4962137;28;20387;-83
2021/12/02 04:14:03;;;;;;;2.30;1.40;;;;;;;-4.15;59.92;97826.13;4965122;28;20050;-84
2021/12/02 04:16:32;;;;;;;1.98;1.17;;;;;;;-4.18;60.54;97818.44;4962246;28;20043;-84
2021/12/02 04:18:57;;;;;;;2.45;1.20;;;;;;;-4.18;60.21;97827.72;4935932;29;20454;-84
2021/12/02 04:21:23;;;;;;;2.40;1.20;;;;;;;-4.16;59.55;97828.63;4942867;29;20051;-83
2021/12/02 04:23:49;;;;;;;2.85;1.30;;;;;;;-4.11;59.98;97829.59;4954791;28;20047;-84
2021/12/02 04:26:14;;;;;;;4.50;1.60;;;;;;;-4.14;60.03;97812.63;4979835;28;20512;-83
2021/12/02 04:28:56;;;;;;;2.13;1.30;;;;;;;-4.11;60.29;97815.25;5134834;27;20940;-85
2021/12/02 04:31:22;;;;;;;3.47;1.50;;;;;;;-4.14;60.33;97807.56;5062401;28;20097;-84
2021/12/02 04:33:48;;;;;;;2.80;1.75;;;;;;;-4.06;60.04;97817.03;5051861;28;20032;-84
2021/12/02 04:36:13;;;;;;;2.10;1.42;;;;;;;-4.07;60.61;97811.13;5060340;28;20459;-85
2021/12/02 04:38:39;;;;;;;2.90;1.77;;;;;;;-4.09;59.99;97813.59;5096717;28;20051;-84
2021/12/02 04:41:05;;;;;;;3.13;1.63;;;;;;;-3.98;60.41;97823.16;5115043;28;20038;-85
2021/12/02 04:43:31;;;;;;;2.72;1.58;;;;;;;-3.87;60.65;97829.31;5063798;28;20060;-86
2021/12/02 04:45:57;;;;;;;3.17;1.70;;;;;;;-3.88;60.81;97837.72;5060963;28;20063;-84
2021/12/02 04:48:22;;;;;;;3.30;1.40;;;;;;;-3.86;60.50;97836.94;5061402;28;20036;-84
2021/12/02 04:50:48;;;;;;;3.80;1.60;;;;;;;-3.92;60.75;97833.41;5046475;28;20509;-85
2021/12/02 04:53:14;;;;;;;3.20;1.50;;;;;;;-3.90;60.84;97835.13;5075385;28;20040;-86
2021/12/02 04:55:40;;;;;;;3.85;1.83;;;;;;;-4.05;60.67;97829.72;5096077;28;20035;-85
2021/12/02 04:58:06;;;;;;;1.95;1.40;;;;;;;-4.02;61.41;97823.88;5063502;28;20070;-84
2021/12/02 05:00:32;;;;;;;2.83;1.38;;;;;;;-3.98;60.94;97825.69;5043324;28;20040;-84
2021/12/02 05:02:57;;;;;;;7.15;1.60;;;;;;;-3.92;61.23;97834.25;5065873;28;20495;-84
2021/12/02 05:05:23;;;;;;;1.90;1.40;;;;;;;-3.91;61.57;97818.22;5063167;28;20564;-83
2021/12/02 05:07:53;;;;;;;3.20;1.50;;;;;;;-3.86;61.39;97839.47;5057986;28;20043;-84
2021/12/02 05:10:18;;;;;;;2.75;1.50;;;;;;;-3.90;61.66;97832.59;5057340;28;20043;-86
2021/12/02 05:12:44;;;;;;;2.75;1.70;;;;;;;-3.87;62.20;97837.75;5062667;28;20447;-83
2021/12/02 05:15:10;;;;;;;;;;;;;;;-3.77;62.23;97843.88;5063469;28;20089;-87
2021/12/02 05:17:36;;;;;;;3.97;1.60;;;;;;;-3.79;61.45;97837.09;5096715;28;19916;-84
2021/12/02 05:20:03;;;;;;;4.00;1.70;;;;;;;-3.84;61.92;97847.97;5078526;28;20059;-83
2021/12/02 05:22:29;;;;;;;3.53;1.63;;;;;;;-3.83;61.66;97858.97;5056506;28;20438;-85
2021/12/02 05:24:54;;;;;;;3.85;2.15;;;;;;;-3.86;62.35;97866.47;5078466;28;20089;-85
2021/12/02 05:27:20;;;;;;;2.45;1.40;;;;;;;-3.86;61.91;97862.25;5078854;28;20063;-86
2021/12/02 05:29:46;;;;;;;2.08;1.25;;;;;;;-3.88;61.74;97868.13;5076469;28;20043;-84
2021/12/02 05:32:12;;;;;;;3.15;1.52;;;;;;;-3.87;61.99;97858.00;5073971;28;20130;-85
2021/12/02 05:34:38;;;;;;;3.90;1.55;;;;;;;-3.81;62.15;97856.44;5075741;28;20048;-87
2021/12/02 05:37:04;;;;;;;2.30;1.42;;;;;;;-3.80;62.05;97856.50;5095377;28;20023;-84
2021/12/02 05:39:30;;;;;;;2.30;1.35;;;;;;;-3.79;61.64;97863.28;5040205;28;20044;-85
2021/12/02 05:41:56;;;;;;;3.30;1.20;;;;;;;-3.80;62.37;97863.22;5062952;28;20498;-85
2021/12/02 05:44:22;;;;;;;2.22;1.33;;;;;;;-3.82;62.42;97868.25;5060474;28;20044;-85
2021/12/02 05:46:47;;;;;;;2.88;1.45;;;;;;;-3.98;62.77;97856.06;5077964;28;20086;-85
2021/12/02 05:49:13;;;;;;;3.33;1.38;;;;;;;-3.91;62.16;97862.97;5061028;28;20040;-86
2021/12/02 05:51:42;;;;;;;2.80;1.65;;;;;;;-3.97;62.56;97848.50;5060272;28;20083;-85
2021/12/02 05:54:08;;;;;;;1.92;1.20;;;;;;;-3.93;62.58;97874.75;5062585;28;20055;-86
2021/12/02 05:56:33;;;;;;;4.20;1.55;;;;;;;-3.90;62.88;97857.09;5073415;28;20040;-85
2021/12/02 05:58:59;;;;;;;2.45;1.30;;;;;;;-3.88;62.89;97875.72;5083182;28;20515;-85
2021/12/02 06:01:25;;;;;;;3.00;1.42;;;;;;;-3.82;62.87;97863.19;5065680;28;20487;-85
2021/12/02 06:03:51;;;;;;;2.70;2.00;;;;;;;-3.94;62.68;97862.88;5075593;28;20126;-84
2021/12/02 06:06:18;;;;;;;3.20;1.60;;;;;;;-3.90;63.38;97865.53;5063749;28;20039;-84
2021/12/02 06:08:44;;;;;;;2.95;1.48;;;;;;;-3.85;63.40;97864.00;5039131;28;20044;-84
2021/12/02 06:11:09;;;;;;;6.68;1.40;;;;;;;-3.72;63.37;97862.59;5094239;28;20058;-86
2021/12/02 06:13:35;;;;;;;3.53;1.50;;;;;;;-3.74;62.66;97869.31;5084161;28;20036;-84
2021/12/02 06:16:01;;;;;;;3.35;1.33;;;;;;;-3.76;63.24;97865.84;5100874;28;20039;-86
2021/12/02 06:18:27;;;;;;;5.40;1.42;;;;;;;-3.80;63.23;97843.84;5050732;28;20032;-85
2021/12/02 06:20:55;;;;;;;2.25;1.45;;;;;;;-3.74;63.59;97860.84;5064545;28;20036;-86
2021/12/02 06:23:22;;;;;;;3.65;1.35;;;;;;;-3.69;63.19;97869.41;5052911;28;20035;-85
2021/12/02 06:25:48;;;;;;;3.25;1.77;;;;;;;-3.67;63.26;97862.69;5078637;28;20471;-86
2021/12/02 06:28:14;;;;;;;;;;;;;;;-3.63;62.51;97870.41;5066418;28;20070;-85
2021/12/02 06:30:40;;;;;;;2.00;1.35;;;;;;;-3.60;62.49;97859.47;5084249;28;19916;-86
2021/12/02 06:33:05;;;;;;;2.85;1.30;;;;;;;-3.65;63.11;97849.25;5064767;28;20033;-85
2021/12/02 06:35:32;;;;;;;3.03;1.45;;;;;;;-3.59;63.73;97861.19;5082967;28;20098;-87
2021/12/02 06:37:58;;;;;;;4.40;1.75;;;;;;;-3.70;63.27;97848.28;5051640;28;20024;-86
2021/12/02 06:40:23;;;;;;;2.00;1.15;;;;;;;-3.67;63.37;97847.47;5067051;28;20548;-86
2021/12/02 06:42:49;;;;;;;3.05;1.40;;;;;;;-3.59;62.69;97851.06;5060264;28;20105;-85
2021/12/02 06:45:15;;;;;;;3.40;1.42;;;;;;;-3.49;63.07;97847.03;5055449;28;20040;-85
2021/12/02 06:47:41;;;;;;;2.60;1.50;;;;;;;-3.48;63.37;97833.53;5065023;28;20032;-85
2021/12/02 06:50:10;;;;;;;2.88;1.15;;;;;;;-3.55;62.81;97836.78;5047188;28;20512;-85
2021/12/02 06:52:36;;;;;;;2.85;1.40;;;;;;;-3.52;62.68;97834.31;5041691;28;20540;-85
2021/12/02 06:55:03;;;;;;;4.10;1.50;;;;;;;-3.45;62.93;97824.31;5084272;28;20040;-85
2021/12/02 06:57:30;;;;;;;3.63;1.30;;;;;;;-3.22;62.10;97834.94;5062710;28;20469;-86
2021/12/02 06:59:56;;;;;;;5.35;1.50;;;;;;;-3.34;61.65;97816.97;5063593;28;20364;-86
2021/12/02 07:02:22;;;;;;;;;;;;;;;-3.25;62.66;97839.97;5047684;28;20025;-83
2021/12/02 07:04:50;;;;;;;2.22;1.33;;;;;;;-3.41;62.05;97815.13;5092506;28;19929;-85
2021/12/02 07:07:16;;;;;;;3.65;1.55;;;;;;;-3.41;62.96;97827.78;5068632;28;20475;-85
2021/12/02 07:09:42;;;;;;;;;;;;;;;-3.30;62.11;97839.00;5085122;28;20044;-85
2021/12/02 07:12:08;;;;;;;2.55;1.52;;;;;;;-3.26;62.28;97835.72;5084467;28;19969;-85
2021/12/02 07:14:34;;;;;;;3.17;1.60;;;;;;;-3.28;61.06;97844.13;5047454;28;20032;-85
2021/12/02 07:17:00;;;;;;;4.75;1.60;;;;;;;-3.20;61.04;97846.00;5061379;28;20440;-85
2021/12/02 07:19:26;;;;;;;2.75;1.38;;;;;;;-3.17;60.46;97851.13;5064956;28;20105;-85
2021/12/02 07:21:51;;;;;;;2.45;1.48;;;;;;;-3.10;61.70;97855.50;5084924;28;20119;-85
2021/12/02 07:24:17;;;;;;;4.07;1.80;;;;;;;-3.25;60.90;97837.44;5065027;28;20040;-84
2021/12/02 07:26:44;;;;;;;4.07;2.03;;;;;;;-3.15;60.79;97846.94;5064672;28;20037;-85
2021/12/02 07:29:10;;;;;;;4.32;1.73;;;;;;;-3.22;60.75;97839.16;5041202;28;20482;-86
2021/12/02 07:31:36;;;;;;;4.00;1.95;;;;;;;-3.15;59.95;97848.63;5075726;28;20093;-85
2021/12/02 07:34:02;;;;;;;4.68;2.20;;;;;;;-3.18;60.75;97844.34;5047217;28;20040;-85
2021/12/02 07:36:31;;;;;;;5.53;3.50;;;;;;;-3.10;61.06;97840.28;5040160;28;20044;-85
2021/12/02 07:38:59;;;;;;;6.63;2.65;;;;;;;-3.12;61.08;97849.53;5046531;28;20040;-85
2021/12/02 07:41:25;;;;;;;6.07;2.90;;;;;;;-3.00;61.07;97848.94;5074932;28;20028;-85
2021/12/02 07:43:51;;;;;;;7.45;2.85;;;;;;;-2.99;60.89;97840.50;5098401;28;20105;-86
2021/12/02 07:46:16;;;;;;;4.10;2.20;;;;;;;-2.92;60.83;97846.56;5063390;28;20449;-84
2021/12/02 07:48:42;;;;;;;4.38;1.75;;;;;;;-3.03;60.40;97836.19;5063682;28;20048;-85
2021/12/02 07:51:11;;;;;;;5.88;2.00;;;;;;;-3.05;60.39;97834.47;5049995;28;20056;-86
2021/12/02 07:53:40;;;;;;;3.70;1.70;;;;;;;-2.89;60.27;97833.91;5058918;28;20490;-86
2021/12/02 07:56:08;;;;;;;2.42;1.45;;;;;;;-2.76;59.97;97833.31;5063995;28;20047;-86
2021/12/02 07:58:34;;;;;;;4.53;2.05;;;;;;;-2.53;60.12;97840.53;5064678;28;20052;-85
2021/12/02 08:01:00;;;;;;;4.70;1.40;;;;;;;-2.43;59.36;97842.38;5075900;28;20170;-84
2021/12/02 08:03:26;;;;;;;6.00;1.90;;;;;;;-2.48;59.35;97844.00;5054415;28;20067;-85
2021/12/02 08:05:53;;;;;;;5.03;1.92;;;;;;;-2.41;59.52;97833.13;5059736;28;20036;-85
2021/12/02 08:08:19;;;;;;;3.30;1.77;;;;;;;-2.35;59.68;97834.09;5079704;28;20086;-85
2021/12/02 08:10:44;;;;;;;3.90;1.77;;;;;;;-2.30;60.20;97855.31;5081008;28;20047;-84
2021/12/02 08:13:13;;;;;;;4.00;1.80;;;;;;;-2.41;59.59;97830.59;5051349;28;20078;-86
2021/12/02 08:15:39;;;;;;;3.60;1.88;;;;;;;-2.35;59.42;97835.78;5068147;28;20032;-85
2021/12/02 08:18:04;;;;;;;4.32;2.00;;;;;;;-2.38;59.93;97825.56;5082183;28;20077;-85
2021/12/02 08:20:30;;;;;;;3.58;1.83;;;;;;;-2.19;60.07;97837.75;5079299;28;20083;-88
2021/12/02 08:22:56;;;;;;;;;;;;;;;-2.11;59.42;97826.03;5065865;28;20040;-85
2021/12/02 08:25:22;;;;;;;3.90;2.00;;;;;;;-2.16;59.45;97817.47;5080680;28;20065;-84
2021/12/02 08:27:49;;;;;;;5.47;1.85;;;;;;;-2.07;59.99;97804.91;5060521;28;20052;-85
2021/12/02 08:30:15;;;;;;;3.75;1.80;;;;;;;-1.98;59.32;97806.75;5081486;28;20173;-84
2021/12/02 08:32:43;;;;;;;3.70;1.80;;;;;;;-1.89;58.95;97803.50;5052902;28;20411;-85
2021/12/02 08:35:12;;;;;;;4.32;2.10;;;;;;;-1.88;59.62;97795.03;5042815;28;20059;-85
2021/12/02 08:37:43;;;;;;;3.83;1.80;;;;;;;-1.81;58.72;97795.16;5073297;28;20085;-84
2021/12/02 08:40:10;;;;;;;5.50;2.00;;;;;;;-1.70;58.58;97792.75;5081050;28;20044;-85
2021/12/02 08:42:36;;;;;;;4.18;1.80;;;;;;;-1.70;58.59;97782.59;5058486;28;20036;-83
2021/12/02 08:45:02;;;;;;;2.63;1.67;;;;;;;-1.59;58.25;97786.16;5074687;28;20036;-85
2021/12/02 08:47:28;;;;;;;4.15;1.88;;;;;;;-1.66;58.63;97779.25;5060321;28;20039;-84
2021/12/02 08:49:55;;;;;;;3.90;2.08;;;;;;;-1.53;58.08;97777.75;5068758;28;20060;-85
2021/12/02 08:52:21;;;;;;;2.45;1.42;;;;;;;-1.46;58.19;97773.63;5062894;28;20459;-86
2021/12/02 08:54:51;;;;;;;4.53;1.80;;;;;;;-1.47;57.50;97764.25;5062422;28;20190;-85
2021/12/02 08:57:17;;;;;;;2.60;1.70;;;;;;;-1.50;57.45;97754.06;5059605;28;20028;-86
2021/12/02 08:59:44;;;;;;;2.95;1.70;;;;;;;-1.38;56.67;97759.28;5047331;28;20038;-86
2021/12/02 09:02:10;;;;;;;2.67;1.48;;;;;;;-1.51;56.77;97763.38;5079589;28;20043;-85
2021/12/02 09:04:36;;;;;;;3.15;1.52;;;;;;;-1.51;56.77;97752.31;5045889;28;20039;-84
2021/12/02 09:07:02;;;;;;;3.10;1.60;;;;;;;-1.42;56.85;97749.91;5097566;28;20024;-86
2021/12/02 09:09:28;;;;;;;5.40;1.98;;;;;;;-1.47;56.90;97744.75;5082852;28;20044;-88
2021/12/02 09:11:57;;;;;;;3.40;1.75;;;;;;;-1.34;56.99;97735.59;5082876;28;20039;-85
2021/12/02 09:14:24;;;;;;;4.00;1.60;;;;;;;-1.35;57.18;97726.25;5084476;28;20091;-85
2021/12/02 09:16:51;;;;;;;2.97;1.60;;;;;;;-1.34;56.87;97733.06;5069748;28;20035;-85
2021/12/02 09:19:20;;;;;;;3.15;1.55;;;;;;;-1.39;56.71;97727.91;5066320;28;20047;-85
2021/12/02 09:21:46;;;;;;;4.50;1.90;;;;;;;-1.44;56.60;97734.63;5060615;28;20530;-85
2021/12/02 09:24:18;;;;;;;3.75;1.92;;;;;;;-1.41;56.73;97738.91;5051916;28;20043;-85
2021/12/02 09:26:47;;;;;;;4.45;1.98;;;;;;;-1.39;56.78;97734.69;5072715;28;20127;-85
2021/12/02 09:29:13;;;;;;;2.78;1.48;;;;;;;-1.41;57.43;97734.69;5079725;28;20040;-85
2021/12/02 09:31:39;;;;;;;2.58;1.40;;;;;;;-1.49;56.50;97720.16;5082281;28;20048;-85
2021/12/02 09:34:05;;;;;;;;;;;;;;;-1.34;57.14;97730.50;5079912;28;20090;-84
2021/12/02 09:36:32;;;;;;;3.55;1.80;;;;;;;-1.45;57.25;97714.28;5093975;28;19896;-84
2021/12/02 09:38:58;;;;;;;4.20;1.77;;;;;;;-1.53;57.05;97706.56;5069092;28;20062;-86
2021/12/02 09:41:24;;;;;;;3.67;1.85;;;;;;;-1.48;57.52;97691.34;5068414;28;20040;-86
2021/12/02 09:43:50;;;;;;;5.55;2.53;;;;;;;-1.40;57.63;97710.94;5064431;28;20405;-85
2021/12/02 09:46:16;;;;;;;5.63;2.00;;;;;;;-1.41;57.52;97721.97;5063312;28;20495;-85
2021/12/02 09:48:42;;;;;;;4.43;2.03;;;;;;;-1.50;57.77;97687.94;5082882;28;20028;-85
2021/12/02 09:51:11;;;;;;;3.47;2.25;;;;;;;-1.50;58.07;97688.78;5058326;28;20048;-84
2021/12/02 09:53:52;;;;;;;5.13;2.03;;;;;;;-1.50;57.97;97703.22;5076251;28;20036;-86
2021/12/02 09:56:25;;;;;;;4.00;1.65;;;;;;;-1.38;57.90;97703.31;5076744;28;20039;-84
2021/12/02 09:58:54;;;;;;;3.85;1.50;;;;;;;-1.46;58.52;97692.25;5073511;28;20142;-85
2021/12/02 10:01:23;;;;;;;5.03;1.70;;;;;;;-1.56;57.91;97665.81;5086513;28;20032;-85
2021/12/02 10:03:58;;;;;;;4.85;1.73;;;;;;;-1.57;58.19;97667.50;5082497;28;20076;-86
2021/12/02 10:06:30;;;;;;;2.95;1.50;;;;;;;-1.62;58.13;97666.63;5081357;28;20047;-87
2021/12/02 10:09:09;;;;;;;4.05;1.60;;;;;;;-1.73;59.63;97663.09;5184327;23;20054;-85
2021/12/02 10:11:44;;;;;;;3.53;1.48;;;;;;;-1.73;60.16;97659.72;4990680;28;20073;-87
2021/12/02 10:14:37;;;;;;;4.70;1.98;;;;;;;-1.53;60.60;97678.59;4956663;28;20053;-85
2021/12/02 10:17:18;;;;;;;4.22;1.58;;;;;;;-1.67;61.10;97669.94;4985991;28;20502;-86
2021/12/02 10:22:43;;;;;;;4.38;1.88;;;;;;;-1.76;62.86;97662.19;4967808;28;20050;-86
2021/12/02 10:25:09;;;;;;;3.78;1.95;;;;;;;-1.82;64.13;97655.34;4960512;28;20038;-85
2021/12/02 10:27:35;;;;;;;4.30;1.63;;;;;;;-1.81;64.83;97662.16;4967620;28;20060;-85
2021/12/02 10:30:18;;;;;;;3.50;1.73;;;;;;;-1.91;66.00;97634.91;4970183;28;20094;-86
2021/12/02 10:32:49;;;;;;;3.85;1.75;;;;;;;-2.07;67.32;97629.63;4949753;28;20121;-85
2021/12/02 10:35:15;;;;;;;4.18;2.40;;;;;;;-2.06;68.76;97640.66;4966762;28;20097;-85
2021/12/02 10:37:41;;;;;;;7.15;2.30;;;;;;;-2.03;69.79;97648.31;4967016;28;20527;-85
2021/12/02 10:40:10;;;;;;;26.70;3.28;;;;;;;-2.18;71.41;97636.25;4950419;28;20201;-86
2021/12/02 10:42:41;;;;;;;4.43;2.10;;;;;;;-2.29;72.69;97635.28;4954920;28;20106;-86
2021/12/02 10:45:17;;;;;;;6.78;2.50;;;;;;;-2.35;74.28;97632.63;4961628;28;20043;-85
2021/12/02 10:47:49;;;;;;;3.92;2.20;;;;;;;-2.43;75.25;97634.19;4992407;28;20094;-86
2021/12/02 10:50:15;;;;;;;4.57;2.40;;;;;;;-2.47;76.37;97617.25;4950905;28;20051;-86
2021/12/02 10:52:41;;;;;;;4.40;2.35;;;;;;;-2.47;77.09;97619.78;4956011;28;20039;-85
2021/12/02 10:55:11;;;;;;;4.65;2.25;;;;;;;-2.35;77.51;97617.38;4982424;28;20090;-86
2021/12/02 10:57:39;;;;;;;5.90;2.50;;;;;;;-2.40;77.82;97601.25;4983071;28;20049;-85
2021/12/02 11:00:13;;;;;;;6.43;2.88;;;;;;;-2.35;78.63;97582.69;4991396;28;20058;-86
2021/12/02 11:02:46;;;;;;;3.55;2.50;;;;;;;-2.26;79.23;97570.94;4954978;28;20042;-85
2021/12/02 11:05:26;;;;;;;4.47;2.45;;;;;;;-2.35;78.97;97554.75;4973374;28;20047;-84
2021/12/02 11:07:58;;;;;;;4.50;2.05;;;;;;;-2.31;79.54;97548.88;4995415;28;20155;-86
2021/12/02 11:10:25;;;;;;;4.68;2.50;;;;;;;-2.26;79.88;97541.31;4986671;28;20058;-87
2021/12/02 11:12:53;;;;;;;4.85;2.55;;;;;;;-2.23;80.22;97531.22;4967172;28;20078;-85
2021/12/02 11:15:23;;;;;;;4.82;2.30;;;;;;;-2.18;80.15;97528.72;4964323;28;20030;-84
2021/12/02 11:17:52;;;;;;;4.20;2.42;;;;;;;-2.15;80.07;97524.53;4942530;29;20042;-85
2021/12/02 11:20:20;;;;;;;6.40;2.45;;;;;;;-2.17;80.54;97510.09;4977548;28;20035;-87
2021/12/02 11:22:46;;;;;;;3.92;2.20;;;;;;;-2.24;80.11;97514.28;4934800;28;20475;-84
2021/12/02 11:25:12;;;;;;;4.00;2.22;;;;;;;-2.25;80.76;97507.47;4941395;28;20045;-86
2021/12/02 11:27:43;;;;;;;5.47;2.33;;;;;;;-2.17;80.76;97531.28;4993810;28;20042;-86
2021/12/02 11:30:16;;;;;;;4.60;2.33;;;;;;;-2.18;81.42;97523.66;4948640;28;20043;-87
2021/12/02 11:32:44;;;;;;;6.38;2.67;;;;;;;-2.17;81.44;97523.66;4962351;28;20042;-86
2021/12/02 11:35:27;;;;;;;6.20;2.70;;;;;;;-2.32;81.17;97524.34;4953857;28;20026;-85
2021/12/02 11:38:04;;;;;;;5.65;2.35;;;;;;;-2.32;81.47;97528.56;4980894;28;20201;-84
2021/12/02 11:40:38;;;;;;;5.35;2.47;;;;;;;-2.31;81.55;97537.88;4976576;28;20039;-86
2021/12/02 11:43:05;;;;;;;4.53;2.42;;;;;;;-2.30;81.96;97524.34;4944345;28;20074;-86
2021/12/02 11:45:32;;;;;;;5.20;2.53;;;;;;;-2.24;81.68;97528.66;4950487;28;20069;-87
2021/12/02 11:47:59;;;;;;;4.43;2.53;;;;;;;-2.26;82.10;97527.78;4965043;28;20038;-86
2021/12/02 11:50:28;;;;;;;5.13;2.40;;;;;;;-2.35;82.10;97519.22;4919607;28;20053;-86
2021/12/02 11:52:54;;;;;;;4.38;2.10;;;;;;;-2.35;82.25;97518.34;4977793;28;20070;-85
2021/12/02 11:55:28;;;;;;;5.13;2.45;;;;;;;-2.36;82.56;97516.66;4942457;28;20030;-85